createdAt,value
2022-11-29T00:00:32.667Z,11.00
2022-11-29T00:03:04.385Z,11.00
2022-11-29T00:05:36.072Z,10.80
2022-11-29T00:08:07.710Z,10.80
2022-11-29T00:10:39.305Z,10.70
2022-11-29T00:13:10.905Z,10.60
2022-11-29T00:15:43.934Z,10.50
2022-11-29T00:18:15.641Z,10.50
2022-11-29T00:20:47.238Z,10.40
2022-11-29T00:23:18.854Z,10.40
2022-11-29T00:25:50.509Z,10.40
2022-11-29T00:28:22.177Z,10.30
2022-11-29T00:30:55.175Z,10.30
2022-11-29T00:33:27.841Z,10.30
2022-11-29T00:36:01.235Z,10.20
2022-11-29T00:38:32.857Z,10.20
2022-11-29T00:41:04.597Z,10.20
2022-11-29T00:43:36.230Z,10.20
2022-11-29T00:46:09.423Z,10.20
2022-11-29T00:48:41.084Z,10.10
2022-11-29T00:51:12.759Z,10.10
2022-11-29T00:53:44.380Z,10.10
2022-11-29T00:56:16.292Z,10.10
2022-11-29T00:58:49.208Z,10.10
2022-11-29T01:01:22.207Z,10.10
2022-11-29T01:03:53.844Z,10.00
2022-11-29T01:06:25.442Z,10.00
2022-11-29T01:08:57.065Z,10.00
2022-11-29T01:11:28.766Z,10.00
2022-11-29T01:14:01.433Z,10.00
2022-11-29T01:16:34.490Z,10.00
2022-11-29T01:19:07.275Z,10.00
2022-11-29T01:21:38.997Z,10.00
2022-11-29T01:24:10.577Z,10.00
2022-11-29T01:26:42.233Z,10.00
2022-11-29T01:29:13.977Z,10.00
2022-11-29T01:31:46.996Z,10.00
2022-11-29T01:34:18.614Z,9.90
2022-11-29T01:36:50.211Z,9.90
2022-11-29T01:39:21.922Z,9.90
2022-11-29T01:41:53.612Z,9.90
2022-11-29T01:44:44.174Z,9.90
2022-11-29T01:47:17.817Z,9.90
2022-11-29T01:49:49.966Z,9.90
2022-11-29T01:52:23.820Z,9.90
2022-11-29T01:54:56.058Z,9.90
2022-11-29T01:57:28.305Z,9.90
2022-11-29T02:00:01.850Z,9.90
2022-11-29T02:02:36.906Z,9.90
2022-11-29T02:05:09.465Z,9.90
2022-11-29T02:07:41.994Z,9.90
2022-11-29T02:10:14.001Z,9.90
2022-11-29T02:12:55.171Z,9.90
2022-11-29T02:15:32.445Z,9.80
2022-11-29T02:18:07.924Z,9.90
2022-11-29T02:20:46.184Z,9.90
2022-11-29T02:23:28.095Z,9.80
2022-11-29T02:26:08.591Z,9.90
2022-11-29T02:28:48.793Z,9.90
2022-11-29T02:31:35.454Z,9.80
2022-11-29T02:34:19.129Z,9.90
2022-11-29T02:37:01.141Z,9.80
2022-11-29T02:39:51.973Z,9.90
2022-11-29T02:42:56.588Z,9.80
2022-11-29T02:45:40.045Z,9.90
2022-11-29T02:48:18.537Z,9.90
2022-11-29T02:50:55.072Z,9.80
2022-11-29T02:53:30.256Z,9.80
2022-11-29T02:56:09.280Z,9.90
2022-11-29T02:58:45.455Z,9.80
2022-11-29T03:01:21.007Z,9.80
2022-11-29T03:03:55.222Z,9.80
2022-11-29T03:06:32.083Z,9.90
2022-11-29T03:09:07.758Z,9.90
2022-11-29T03:11:45.323Z,9.80
2022-11-29T03:14:22.842Z,9.80
2022-11-29T03:16:59.641Z,9.80
2022-11-29T03:19:36.905Z,9.90
2022-11-29T03:22:19.130Z,9.90
2022-11-29T03:24:54.537Z,9.90
2022-11-29T03:27:30.336Z,9.90
2022-11-29T03:30:03.874Z,9.90
2022-11-29T03:32:39.913Z,9.90
2022-11-29T03:35:13.480Z,9.80
2022-11-29T03:37:50.158Z,9.90
2022-11-29T03:40:24.351Z,9.90
2022-11-29T03:42:59.084Z,9.90
2022-11-29T03:45:34.719Z,9.80
2022-11-29T03:48:09.200Z,9.80
2022-11-29T03:50:42.457Z,9.90
2022-11-29T03:53:20.114Z,9.90
2022-11-29T03:55:53.489Z,9.80
2022-11-29T03:58:39.974Z,9.80
2022-11-29T04:01:24.787Z,9.90
2022-11-29T04:04:08.802Z,9.90
2022-11-29T04:06:47.185Z,9.90
2022-11-29T04:09:35.676Z,9.90
2022-11-29T04:12:22.520Z,9.80
2022-11-29T04:15:12.829Z,9.90
2022-11-29T04:18:11.057Z,9.80
2022-11-29T04:20:49.272Z,9.80
2022-11-29T04:23:45.281Z,9.80
2022-11-29T04:26:35.347Z,9.80
2022-11-29T04:29:11.577Z,9.80
2022-11-29T04:31:51.313Z,9.80
2022-11-29T04:34:34.781Z,9.80
2022-11-29T04:37:24.206Z,9.80
2022-11-29T04:40:05.167Z,9.80
2022-11-29T04:42:42.574Z,9.80
2022-11-29T04:45:28.159Z,9.80
2022-11-29T04:48:10.247Z,9.80
2022-11-29T04:50:45.882Z,9.80
2022-11-29T04:53:35.487Z,9.80
2022-11-29T04:56:11.558Z,9.90
2022-11-29T04:58:48.003Z,9.90
2022-11-29T05:01:24.029Z,9.80
2022-11-29T05:03:58.979Z,9.80
2022-11-29T05:06:34.847Z,9.80
2022-11-29T05:09:11.047Z,9.80
2022-11-29T05:11:46.732Z,9.80
2022-11-29T05:14:25.294Z,9.90
2022-11-29T05:17:04.221Z,9.90
2022-11-29T05:19:43.035Z,9.90
2022-11-29T05:22:20.950Z,9.90
2022-11-29T05:24:54.622Z,9.80
2022-11-29T05:27:32.200Z,9.80
2022-11-29T05:30:05.621Z,9.80
2022-11-29T05:32:45.271Z,9.90
2022-11-29T05:35:32.859Z,9.80
2022-11-29T05:38:12.509Z,9.80
2022-11-29T05:40:46.070Z,9.90
2022-11-29T05:43:32.562Z,9.90
2022-11-29T05:46:07.857Z,9.90
2022-11-29T05:48:45.342Z,9.90
2022-11-29T05:51:21.146Z,9.90
2022-11-29T05:53:56.496Z,9.90
2022-11-29T05:56:33.203Z,9.90
2022-11-29T05:59:07.974Z,9.80
2022-11-29T06:01:45.313Z,9.80
2022-11-29T06:04:21.259Z,9.80
2022-11-29T06:06:55.231Z,9.80
2022-11-29T06:09:28.869Z,9.80
2022-11-29T06:12:02.466Z,9.80
2022-11-29T06:14:56.951Z,9.90
2022-11-29T06:17:39.585Z,10.20
2022-11-29T06:20:26.283Z,10.50
2022-11-29T06:23:12.100Z,10.90
2022-11-29T06:25:49.703Z,11.20
2022-11-29T06:28:26.996Z,11.40
2022-11-29T06:31:02.860Z,11.50
2022-11-29T06:33:38.396Z,11.50
2022-11-29T06:36:14.272Z,11.40
2022-11-29T06:38:47.529Z,11.30
2022-11-29T06:41:20.723Z,11.20
2022-11-29T06:43:52.623Z,11.10
2022-11-29T06:46:33.415Z,11.00
2022-11-29T06:49:08.790Z,10.90
2022-11-29T06:51:45.132Z,10.80
2022-11-29T06:54:26.154Z,10.70
2022-11-29T06:57:02.152Z,10.60
2022-11-29T06:59:42.543Z,10.50
2022-11-29T07:02:20.449Z,10.50
2022-11-29T07:04:57.223Z,10.40
2022-11-29T07:07:29.480Z,10.40
2022-11-29T07:10:04.073Z,10.30
2022-11-29T07:12:35.987Z,10.30
2022-11-29T07:15:09.690Z,10.20
2022-11-29T07:17:46.631Z,10.20
2022-11-29T07:20:22.444Z,10.20
2022-11-29T07:23:00.539Z,10.10
2022-11-29T07:25:38.223Z,10.10
2022-11-29T07:28:15.017Z,10.10
2022-11-29T07:30:51.426Z,10.10
2022-11-29T07:33:26.844Z,10.10
2022-11-29T07:36:04.715Z,10.10
2022-11-29T07:38:39.762Z,10.10
2022-11-29T07:41:16.353Z,10.10
2022-11-29T07:43:52.042Z,10.10
2022-11-29T07:46:23.882Z,10.00
2022-11-29T07:48:55.545Z,10.10
2022-11-29T07:51:27.168Z,10.00
2022-11-29T07:53:58.807Z,10.00
2022-11-29T07:56:31.781Z,10.00
2022-11-29T07:59:03.485Z,10.00
2022-11-29T08:01:35.090Z,10.00
2022-11-29T08:04:06.886Z,10.00
2022-11-29T08:06:38.581Z,10.00
2022-11-29T08:09:10.234Z,10.00
2022-11-29T08:11:43.202Z,10.00
2022-11-29T08:14:14.803Z,10.00
2022-11-29T08:16:46.467Z,10.00
2022-11-29T08:19:18.108Z,10.00
2022-11-29T08:21:51.489Z,10.00
2022-11-29T08:24:23.222Z,10.00
2022-11-29T08:26:56.196Z,10.00
2022-11-29T08:29:27.833Z,10.00
2022-11-29T08:31:59.555Z,10.00
2022-11-29T08:34:31.219Z,10.00
2022-11-29T08:37:03.045Z,10.00
2022-11-29T08:39:34.696Z,10.00
2022-11-29T08:42:07.725Z,10.00
2022-11-29T08:44:39.417Z,10.00
2022-11-29T08:47:29.590Z,10.00
2022-11-29T08:50:01.256Z,10.10
2022-11-29T08:52:53.164Z,10.00
2022-11-29T08:55:26.249Z,10.00
2022-11-29T08:58:01.915Z,10.00
2022-11-29T09:00:34.698Z,10.00
2022-11-29T09:03:25.177Z,10.00
2022-11-29T09:05:57.565Z,10.00
2022-11-29T09:08:29.227Z,10.10
2022-11-29T09:11:00.995Z,10.10
2022-11-29T09:13:34.037Z,10.10
2022-11-29T09:16:06.965Z,10.10
2022-11-29T09:18:38.939Z,10.10
2022-11-29T09:21:11.405Z,10.10
2022-11-29T09:23:43.655Z,10.10
2022-11-29T09:26:16.342Z,10.10
2022-11-29T09:28:49.882Z,10.10
2022-11-29T09:31:21.925Z,10.10
2022-11-29T09:33:54.029Z,10.20
2022-11-29T09:36:28.780Z,10.20
2022-11-29T09:39:02.760Z,10.20
2022-11-29T09:41:48.532Z,10.20
2022-11-29T09:44:28.019Z,10.20
2022-11-29T09:47:00.841Z,10.20
2022-11-29T09:49:39.249Z,10.30
2022-11-29T09:52:16.386Z,10.30
2022-11-29T09:54:51.624Z,10.30
2022-11-29T09:57:24.906Z,10.30
2022-11-29T09:59:59.207Z,10.30
2022-11-29T10:02:33.066Z,10.30
2022-11-29T10:05:08.810Z,10.40
2022-11-29T10:07:42.976Z,10.40
2022-11-29T10:10:17.221Z,10.40
2022-11-29T10:12:52.026Z,10.40
2022-11-29T10:15:27.271Z,10.40
2022-11-29T10:18:01.286Z,10.40
2022-11-29T10:20:39.741Z,10.50
2022-11-29T10:23:16.280Z,10.50
2022-11-29T10:25:48.690Z,10.50
2022-11-29T10:28:21.816Z,10.50
2022-11-29T10:30:55.977Z,10.50
2022-11-29T10:33:30.450Z,10.50
2022-11-29T10:36:04.176Z,10.50
2022-11-29T10:38:35.785Z,10.50
2022-11-29T10:41:08.962Z,10.50
2022-11-29T10:43:40.675Z,10.50
2022-11-29T10:46:16.159Z,10.50
2022-11-29T10:48:47.809Z,10.60
2022-11-29T10:51:19.754Z,10.60
2022-11-29T10:53:52.791Z,10.60
2022-11-29T10:56:29.414Z,10.60
2022-11-29T10:59:07.879Z,10.60
2022-11-29T11:01:42.295Z,10.60
2022-11-29T11:04:15.402Z,10.70
2022-11-29T11:06:48.928Z,10.70
2022-11-29T11:09:22.079Z,10.70
2022-11-29T11:11:55.413Z,10.70
2022-11-29T11:14:28.220Z,10.70
2022-11-29T11:17:14.921Z,10.80
2022-11-29T11:19:53.574Z,10.80
2022-11-29T11:22:26.439Z,10.80
2022-11-29T11:24:59.596Z,10.90
2022-11-29T11:27:32.590Z,10.90
2022-11-29T11:30:06.341Z,10.90
2022-11-29T11:32:38.002Z,10.90
2022-11-29T11:35:22.821Z,10.90
2022-11-29T11:37:56.106Z,10.90
2022-11-29T11:40:29.231Z,11.00
2022-11-29T11:43:01.856Z,11.00
2022-11-29T11:45:35.258Z,11.00
2022-11-29T11:48:12.600Z,11.00
2022-11-29T11:50:49.734Z,11.10
2022-11-29T11:53:23.136Z,11.10
2022-11-29T11:55:57.050Z,11.10
2022-11-29T11:58:29.874Z,11.20
2022-11-29T12:01:14.117Z,11.20
2022-11-29T12:03:49.695Z,11.10
2022-11-29T12:06:31.662Z,11.10
2022-11-29T12:09:05.530Z,11.20
2022-11-29T12:11:46.328Z,11.20
2022-11-29T12:14:22.921Z,11.20
2022-11-29T12:16:58.576Z,11.20
2022-11-29T12:19:34.362Z,11.20
2022-11-29T12:22:12.056Z,11.20
2022-11-29T12:24:50.131Z,11.20
2022-11-29T12:27:21.900Z,11.20
2022-11-29T12:29:53.597Z,11.20
2022-11-29T12:32:32.814Z,11.20
2022-11-29T12:35:19.369Z,11.20
2022-11-29T12:37:56.535Z,11.20
2022-11-29T12:40:33.604Z,11.20
2022-11-29T12:43:11.668Z,11.20
2022-11-29T12:45:48.344Z,11.20
2022-11-29T12:48:25.212Z,11.20
2022-11-29T12:51:02.380Z,11.20
2022-11-29T12:53:44.963Z,11.20
2022-11-29T12:56:22.773Z,11.20
2022-11-29T12:59:00.447Z,11.20
2022-11-29T13:01:39.504Z,11.20
2022-11-29T13:04:16.210Z,11.20
2022-11-29T13:06:49.598Z,11.30
2022-11-29T13:09:43.391Z,11.30
2022-11-29T13:12:18.397Z,11.30
2022-11-29T13:14:54.324Z,11.30
2022-11-29T13:17:30.409Z,11.30
2022-11-29T13:20:04.108Z,11.30
2022-11-29T13:22:38.355Z,11.30
2022-11-29T13:25:14.869Z,11.30
2022-11-29T13:27:49.578Z,11.30
2022-11-29T13:30:21.235Z,11.30
2022-11-29T13:32:57.027Z,11.30
2022-11-29T13:35:33.030Z,11.30
2022-11-29T13:38:10.445Z,11.30
2022-11-29T13:40:48.648Z,11.30
2022-11-29T13:43:23.565Z,11.30
2022-11-29T13:45:59.200Z,11.30
2022-11-29T13:48:34.612Z,11.30
2022-11-29T13:51:24.230Z,11.30
2022-11-29T13:53:56.753Z,11.30
2022-11-29T13:56:33.398Z,11.30
2022-11-29T13:59:07.037Z,11.30
2022-11-29T14:01:45.876Z,11.30
2022-11-29T14:04:35.040Z,11.20
2022-11-29T14:07:08.423Z,11.20
2022-11-29T14:09:43.699Z,11.30
2022-11-29T14:12:26.178Z,11.20
2022-11-29T14:15:00.249Z,11.20
2022-11-29T14:17:34.051Z,11.20
2022-11-29T14:20:30.452Z,11.20
2022-11-29T14:23:15.227Z,11.20
2022-11-29T14:26:05.459Z,11.20
2022-11-29T14:28:39.468Z,11.20
2022-11-29T14:31:11.220Z,11.10
2022-11-29T14:33:50.868Z,11.20
2022-11-29T14:36:42.289Z,11.20
2022-11-29T14:39:30.141Z,11.10
2022-11-29T14:42:04.934Z,11.10
2022-11-29T14:44:42.686Z,11.10
2022-11-29T14:47:18.706Z,11.10
2022-11-29T14:49:51.185Z,11.10
2022-11-29T14:52:26.241Z,11.10
2022-11-29T14:54:59.961Z,11.10
2022-11-29T14:57:50.119Z,11.00
2022-11-29T15:00:24.128Z,11.00
2022-11-29T15:02:57.794Z,11.00
2022-11-29T15:05:31.347Z,11.00
2022-11-29T15:08:09.348Z,11.00
2022-11-29T15:10:42.209Z,11.00
2022-11-29T15:13:15.455Z,11.00
2022-11-29T15:16:09.207Z,11.00
2022-11-29T15:18:59.341Z,10.90
2022-11-29T15:21:34.031Z,10.90
2022-11-29T15:24:09.765Z,11.00
2022-11-29T15:26:54.321Z,10.90
2022-11-29T15:29:26.542Z,10.90
2022-11-29T15:32:00.837Z,11.00
2022-11-29T15:34:34.928Z,10.90
2022-11-29T15:37:06.590Z,10.90
2022-11-29T15:39:39.004Z,10.90
2022-11-29T15:42:11.715Z,10.90
2022-11-29T15:44:45.224Z,10.90
2022-11-29T15:47:20.870Z,10.90
2022-11-29T15:49:53.057Z,10.90
2022-11-29T15:52:27.141Z,10.90
2022-11-29T15:54:59.942Z,10.80
2022-11-29T15:57:34.945Z,10.80
2022-11-29T16:00:07.856Z,10.80
2022-11-29T16:02:45.753Z,10.80
2022-11-29T16:05:21.918Z,10.80
2022-11-29T16:07:54.623Z,10.80
2022-11-29T16:10:35.007Z,10.80
2022-11-29T16:13:26.121Z,10.80
2022-11-29T16:16:04.375Z,10.70
2022-11-29T16:18:40.637Z,10.70
2022-11-29T16:21:22.129Z,10.70
2022-11-29T16:23:54.017Z,10.70
2022-11-29T16:26:27.451Z,10.70
2022-11-29T16:28:59.967Z,10.70
2022-11-29T16:31:32.700Z,10.70
2022-11-29T16:34:08.037Z,10.70
2022-11-29T16:36:39.650Z,10.70
2022-11-29T16:39:16.937Z,10.70
2022-11-29T16:42:01.267Z,10.60
2022-11-29T16:44:51.577Z,10.80
2022-11-29T16:47:23.928Z,11.00
2022-11-29T16:50:13.421Z,11.30
2022-11-29T16:52:45.087Z,11.60
2022-11-29T16:55:17.215Z,12.00
2022-11-29T16:57:49.072Z,12.30
2022-11-29T17:00:31.258Z,12.60
2022-11-29T17:03:02.885Z,12.80
2022-11-29T17:05:39.067Z,13.10
2022-11-29T17:08:14.907Z,13.30
2022-11-29T17:10:46.533Z,13.50
2022-11-29T17:13:19.132Z,13.70
2022-11-29T17:15:50.725Z,13.80
2022-11-29T17:18:22.335Z,14.00
2022-11-29T17:20:56.501Z,14.10
2022-11-29T17:23:28.114Z,14.20
2022-11-29T17:26:00.607Z,14.30
2022-11-29T17:28:32.213Z,14.40
2022-11-29T17:31:07.697Z,14.50
2022-11-29T17:33:39.534Z,14.60
2022-11-29T17:36:15.196Z,14.70
2022-11-29T17:38:47.226Z,14.70
2022-11-29T17:41:21.818Z,14.80
2022-11-29T17:43:54.207Z,14.80
2022-11-29T17:46:26.821Z,14.90
2022-11-29T17:48:58.672Z,14.90
2022-11-29T17:54:23.726Z,15.00
2022-11-29T17:56:55.337Z,15.10
2022-11-29T17:59:26.927Z,15.00
2022-11-29T18:01:58.694Z,15.10
2022-11-29T18:04:30.436Z,15.10
2022-11-29T18:07:03.397Z,15.10
2022-11-29T18:09:35.016Z,15.10
2022-11-29T18:12:06.625Z,15.10
2022-11-29T18:14:38.949Z,15.10
2022-11-29T18:17:10.627Z,15.10
2022-11-29T18:19:42.448Z,15.10
2022-11-29T18:22:15.411Z,15.10
2022-11-29T18:24:47.010Z,15.10
2022-11-29T18:27:19.922Z,15.10
2022-11-29T18:29:51.593Z,15.10
2022-11-29T18:32:23.320Z,15.10
2022-11-29T18:34:55.753Z,15.20
2022-11-29T18:38:06.498Z,15.20
2022-11-29T18:40:20.340Z,15.20
2022-11-29T18:42:51.933Z,15.20
2022-11-29T18:45:23.598Z,15.20
2022-11-29T18:47:55.198Z,15.20
2022-11-29T18:50:26.838Z,15.20
2022-11-29T18:52:59.804Z,15.20
2022-11-29T18:55:31.442Z,15.20
2022-11-29T18:58:03.909Z,15.20
2022-11-29T19:00:35.540Z,15.20
2022-11-29T19:03:07.260Z,15.20
2022-11-29T19:05:38.935Z,15.20
2022-11-29T19:08:12.009Z,15.20
2022-11-29T19:10:44.670Z,15.20
2022-11-29T19:13:16.294Z,15.20
2022-11-29T19:15:51.301Z,15.20
2022-11-29T19:18:23.489Z,15.10
2022-11-29T19:21:03.816Z,15.10
2022-11-29T19:23:37.441Z,15.10
2022-11-29T19:26:10.690Z,15.10
2022-11-29T19:28:44.638Z,15.10
2022-11-29T19:31:17.274Z,15.00
2022-11-29T19:33:48.955Z,15.00
2022-11-29T19:36:21.514Z,15.00
2022-11-29T19:38:54.881Z,15.00
2022-11-29T19:41:27.959Z,15.00
2022-11-29T19:47:15.840Z,14.60
2022-11-29T19:53:37.857Z,14.00
2022-11-29T19:56:12.275Z,13.50
2022-11-29T19:59:58.594Z,13.20
2022-11-29T20:12:14.026Z,12.00
2022-11-29T20:14:45.760Z,11.80
2022-11-29T20:17:19.909Z,11.60
2022-11-29T20:26:34.750Z,11.20
2022-11-29T20:29:08.559Z,11.00
2022-11-29T20:31:45.965Z,11.00
2022-11-29T20:34:21.205Z,10.80
2022-11-29T20:37:09.163Z,10.80
2022-11-29T20:39:44.031Z,10.70
2022-11-29T20:42:26.272Z,10.60
2022-11-29T20:45:00.230Z,10.60
2022-11-29T20:47:33.412Z,10.50
2022-11-29T20:50:05.770Z,10.40
2022-11-29T20:52:42.675Z,10.40
2022-11-29T20:55:14.309Z,10.40
2022-11-29T20:57:46.173Z,10.30
2022-11-29T21:00:19.731Z,10.30
2022-11-29T21:02:51.346Z,10.20
2022-11-29T21:05:23.125Z,10.20
2022-11-29T21:07:54.840Z,10.20
2022-11-29T21:10:26.456Z,10.20
2022-11-29T21:12:58.414Z,10.20
2022-11-29T21:15:31.817Z,10.10
2022-11-29T21:18:03.678Z,10.10
2022-11-29T21:20:35.373Z,10.00
2022-11-29T21:23:09.251Z,10.00
2022-11-29T21:25:43.034Z,10.00
2022-11-29T21:28:15.663Z,9.90
2022-11-29T21:30:48.989Z,9.90
2022-11-29T21:33:20.877Z,9.90
2022-11-29T21:35:54.586Z,9.80
2022-11-29T21:38:28.750Z,9.80
2022-11-29T21:41:00.477Z,9.80
2022-11-29T21:44:04.250Z,9.80
2022-11-29T21:46:25.164Z,9.80
2022-11-29T21:48:57.163Z,9.80
2022-11-29T21:51:28.747Z,9.80
2022-11-29T21:54:00.941Z,9.80
2022-11-29T21:56:32.529Z,9.80
2022-11-29T21:59:04.238Z,9.80
2022-11-29T22:01:37.355Z,9.70
2022-11-29T22:04:09.157Z,9.70
2022-11-29T22:06:41.041Z,9.70
2022-11-29T22:09:12.817Z,9.70
2022-11-29T22:11:44.564Z,9.70
2022-11-29T22:14:19.703Z,9.70
2022-11-29T22:16:54.030Z,9.70
2022-11-29T22:19:26.695Z,9.70
2022-11-29T22:21:59.362Z,9.70
2022-11-29T22:24:31.895Z,9.70
2022-11-29T22:27:03.608Z,9.70
2022-11-29T22:29:35.226Z,9.70
2022-11-29T22:32:08.178Z,9.70
2022-11-29T22:34:39.804Z,10.00
2022-11-29T22:37:12.450Z,10.30
2022-11-29T22:39:44.095Z,10.60
2022-11-29T22:42:15.747Z,10.90
2022-11-29T22:44:47.628Z,11.20
2022-11-29T22:47:20.756Z,11.50
2022-11-29T22:49:52.407Z,11.80
2022-11-29T22:52:24.075Z,12.00
2022-11-29T22:54:59.907Z,12.20
2022-11-29T22:57:34.639Z,12.50
2022-11-29T23:00:06.943Z,12.70
2022-11-29T23:02:40.049Z,12.80
2022-11-29T23:05:11.911Z,13.00
2022-11-29T23:07:46.704Z,13.10
2022-11-29T23:10:18.546Z,13.20
2022-11-29T23:12:50.299Z,13.30
2022-11-29T23:15:22.018Z,13.40
2022-11-29T23:17:55.712Z,13.50
2022-11-29T23:20:27.418Z,13.60
2022-11-29T23:22:59.177Z,13.60
2022-11-29T23:25:30.926Z,13.70
2022-11-29T23:28:02.750Z,13.70
2022-11-29T23:30:37.088Z,13.80
2022-11-29T23:33:10.405Z,13.80
2022-11-29T23:35:42.147Z,13.90
2022-11-29T23:38:14.127Z,14.00
2022-11-29T23:40:45.839Z,14.10
2022-11-29T23:43:17.552Z,14.10
2022-11-29T23:45:49.486Z,14.20
2022-11-29T23:48:22.619Z,14.20
2022-11-29T23:50:54.391Z,14.20
2022-11-29T23:53:26.075Z,14.30
2022-11-29T23:55:58.368Z,14.30
2022-11-29T23:58:30.899Z,14.30
